sensor_id;sensor_type;location;lat;lon;timestamp;P1;durP1;ratioP1;P2;durP2;ratioP2
15673;SDS011;7937;48.090;16.212;2023-04-25T00:00:53;1.63;;;1.00;;
15673;SDS011;7937;48.090;16.212;2023-04-25T00:03:55;1.93;;;1.30;;
15673;SDS011;7937;48.090;16.212;2023-04-25T00:06:58;1.47;;;1.00;;
15673;SDS011;7937;48.090;16.212;2023-04-25T00:10:03;3.77;;;1.70;;
15673;SDS011;7937;48.090;16.212;2023-04-25T00:13:05;3.50;;;1.60;;
15673;SDS011;7937;48.090;16.212;2023-04-25T00:16:07;1.83;;;1.47;;
15673;SDS011;7937;48.090;16.212;2023-04-25T00:19:10;2.67;;;1.70;;
15673;SDS011;7937;48.090;16.212;2023-04-25T00:22:12;2.60;;;1.30;;
15673;SDS011;7937;48.090;16.212;2023-04-25T00:25:15;1.67;;;1.50;;
15673;SDS011;7937;48.090;16.212;2023-04-25T00:28:17;2.63;;;1.50;;
15673;SDS011;7937;48.090;16.212;2023-04-25T00:31:19;3.27;;;1.37;;
15673;SDS011;7937;48.090;16.212;2023-04-25T00:34:21;3.03;;;1.40;;
15673;SDS011;7937;48.090;16.212;2023-04-25T00:37:23;2.47;;;1.40;;
15673;SDS011;7937;48.090;16.212;2023-04-25T00:40:26;2.67;;;1.70;;
15673;SDS011;7937;48.090;16.212;2023-04-25T00:43:28;1.80;;;1.50;;
15673;SDS011;7937;48.090;16.212;2023-04-25T00:46:34;1.40;;;1.30;;
15673;SDS011;7937;48.090;16.212;2023-04-25T00:49:37;1.83;;;1.40;;
15673;SDS011;7937;48.090;16.212;2023-04-25T00:52:46;2.17;;;1.90;;
15673;SDS011;7937;48.090;16.212;2023-04-25T00:55:49;2.40;;;1.70;;
15673;SDS011;7937;48.090;16.212;2023-04-25T00:58:55;2.83;;;1.40;;
15673;SDS011;7937;48.090;16.212;2023-04-25T01:02:04;2.27;;;1.60;;
15673;SDS011;7937;48.090;16.212;2023-04-25T01:05:07;1.77;;;1.63;;
15673;SDS011;7937;48.090;16.212;2023-04-25T01:08:10;2.00;;;1.40;;
15673;SDS011;7937;48.090;16.212;2023-04-25T01:11:13;2.67;;;1.40;;
15673;SDS011;7937;48.090;16.212;2023-04-25T01:14:15;1.50;;;1.40;;
15673;SDS011;7937;48.090;16.212;2023-04-25T01:17:18;3.03;;;1.87;;
15673;SDS011;7937;48.090;16.212;2023-04-25T01:20:22;2.80;;;1.67;;
15673;SDS011;7937;48.090;16.212;2023-04-25T01:23:31;1.97;;;1.63;;
15673;SDS011;7937;48.090;16.212;2023-04-25T01:26:35;2.17;;;1.70;;
15673;SDS011;7937;48.090;16.212;2023-04-25T01:29:38;4.23;;;1.73;;
15673;SDS011;7937;48.090;16.212;2023-04-25T01:32:41;2.47;;;1.53;;
15673;SDS011;7937;48.090;16.212;2023-04-25T01:35:44;2.30;;;1.73;;
15673;SDS011;7937;48.090;16.212;2023-04-25T01:38:46;2.77;;;2.07;;
15673;SDS011;7937;48.090;16.212;2023-04-25T01:41:49;1.70;;;1.60;;
15673;SDS011;7937;48.090;16.212;2023-04-25T01:44:51;3.13;;;1.90;;
15673;SDS011;7937;48.090;16.212;2023-04-25T01:47:53;5.20;;;1.80;;
15673;SDS011;7937;48.090;16.212;2023-04-25T01:50:56;3.70;;;2.17;;
15673;SDS011;7937;48.090;16.212;2023-04-25T01:54:00;2.23;;;1.47;;
15673;SDS011;7937;48.090;16.212;2023-04-25T01:57:05;4.20;;;1.70;;
15673;SDS011;7937;48.090;16.212;2023-04-25T02:00:10;2.80;;;1.77;;
15673;SDS011;7937;48.090;16.212;2023-04-25T02:03:13;4.87;;;1.80;;
15673;SDS011;7937;48.090;16.212;2023-04-25T02:06:15;3.17;;;1.90;;
15673;SDS011;7937;48.090;16.212;2023-04-25T02:09:20;3.43;;;2.30;;
15673;SDS011;7937;48.090;16.212;2023-04-25T02:12:27;4.80;;;2.17;;
15673;SDS011;7937;48.090;16.212;2023-04-25T02:15:48;3.20;;;1.70;;
15673;SDS011;7937;48.090;16.212;2023-04-25T02:18:53;5.07;;;1.70;;
15673;SDS011;7937;48.090;16.212;2023-04-25T02:21:55;3.67;;;2.20;;
15673;SDS011;7937;48.090;16.212;2023-04-25T02:24:59;2.60;;;1.87;;
15673;SDS011;7937;48.090;16.212;2023-04-25T02:28:01;3.27;;;2.20;;
15673;SDS011;7937;48.090;16.212;2023-04-25T02:31:04;2.97;;;2.00;;
15673;SDS011;7937;48.090;16.212;2023-04-25T02:34:07;2.60;;;2.03;;
15673;SDS011;7937;48.090;16.212;2023-04-25T02:37:11;3.00;;;1.63;;
15673;SDS011;7937;48.090;16.212;2023-04-25T02:40:14;4.10;;;2.30;;
15673;SDS011;7937;48.090;16.212;2023-04-25T02:43:16;2.47;;;1.63;;
15673;SDS011;7937;48.090;16.212;2023-04-25T02:46:19;1.83;;;1.50;;
15673;SDS011;7937;48.090;16.212;2023-04-25T02:49:39;2.17;;;1.67;;
15673;SDS011;7937;48.090;16.212;2023-04-25T02:52:42;1.67;;;1.50;;
15673;SDS011;7937;48.090;16.212;2023-04-25T02:55:49;2.20;;;2.00;;
15673;SDS011;7937;48.090;16.212;2023-04-25T02:58:52;2.80;;;1.77;;
15673;SDS011;7937;48.090;16.212;2023-04-25T03:01:54;3.83;;;1.60;;
15673;SDS011;7937;48.090;16.212;2023-04-25T03:04:58;2.17;;;1.97;;
15673;SDS011;7937;48.090;16.212;2023-04-25T03:08:01;1.77;;;1.63;;
15673;SDS011;7937;48.090;16.212;2023-04-25T03:11:06;4.00;;;1.77;;
15673;SDS011;7937;48.090;16.212;2023-04-25T03:14:09;3.60;;;2.10;;
15673;SDS011;7937;48.090;16.212;2023-04-25T03:17:11;2.00;;;1.80;;
15673;SDS011;7937;48.090;16.212;2023-04-25T03:20:13;2.57;;;2.23;;
15673;SDS011;7937;48.090;16.212;2023-04-25T03:23:16;3.30;;;1.90;;
15673;SDS011;7937;48.090;16.212;2023-04-25T03:26:19;2.90;;;2.10;;
15673;SDS011;7937;48.090;16.212;2023-04-25T03:29:22;2.87;;;2.23;;
15673;SDS011;7937;48.090;16.212;2023-04-25T03:32:29;3.00;;;2.00;;
15673;SDS011;7937;48.090;16.212;2023-04-25T03:35:32;3.03;;;2.00;;
15673;SDS011;7937;48.090;16.212;2023-04-25T03:38:34;3.97;;;2.00;;
15673;SDS011;7937;48.090;16.212;2023-04-25T03:41:39;2.00;;;1.87;;
15673;SDS011;7937;48.090;16.212;2023-04-25T03:44:46;1.90;;;1.80;;
15673;SDS011;7937;48.090;16.212;2023-04-25T03:47:48;2.90;;;2.10;;
15673;SDS011;7937;48.090;16.212;2023-04-25T03:50:52;2.43;;;2.20;;
15673;SDS011;7937;48.090;16.212;2023-04-25T03:53:54;2.33;;;1.60;;
15673;SDS011;7937;48.090;16.212;2023-04-25T03:57:05;2.40;;;2.00;;
15673;SDS011;7937;48.090;16.212;2023-04-25T04:00:11;2.30;;;1.87;;
15673;SDS011;7937;48.090;16.212;2023-04-25T04:03:14;3.80;;;2.00;;
15673;SDS011;7937;48.090;16.212;2023-04-25T04:06:17;2.17;;;1.97;;
15673;SDS011;7937;48.090;16.212;2023-04-25T04:09:23;3.20;;;2.10;;
15673;SDS011;7937;48.090;16.212;2023-04-25T04:12:27;2.23;;;2.03;;
15673;SDS011;7937;48.090;16.212;2023-04-25T04:15:30;2.60;;;2.07;;
15673;SDS011;7937;48.090;16.212;2023-04-25T04:18:34;1.80;;;1.70;;
15673;SDS011;7937;48.090;16.212;2023-04-25T04:21:37;1.60;;;1.50;;
15673;SDS011;7937;48.090;16.212;2023-04-25T04:24:41;3.37;;;2.10;;
15673;SDS011;7937;48.090;16.212;2023-04-25T04:27:48;2.00;;;1.80;;
15673;SDS011;7937;48.090;16.212;2023-04-25T04:30:59;3.27;;;1.90;;
15673;SDS011;7937;48.090;16.212;2023-04-25T04:34:03;3.57;;;2.00;;
15673;SDS011;7937;48.090;16.212;2023-04-25T04:37:07;2.20;;;1.80;;
15673;SDS011;7937;48.090;16.212;2023-04-25T04:40:10;3.60;;;2.20;;
15673;SDS011;7937;48.090;16.212;2023-04-25T04:43:19;2.57;;;2.07;;
15673;SDS011;7937;48.090;16.212;2023-04-25T04:46:42;2.13;;;1.90;;
15673;SDS011;7937;48.090;16.212;2023-04-25T04:50:03;2.57;;;2.03;;
15673;SDS011;7937;48.090;16.212;2023-04-25T04:53:16;1.70;;;1.60;;
15673;SDS011;7937;48.090;16.212;2023-04-25T04:56:18;3.13;;;2.27;;
15673;SDS011;7937;48.090;16.212;2023-04-25T04:59:29;3.60;;;2.80;;
15673;SDS011;7937;48.090;16.212;2023-04-25T05:03:01;4.87;;;2.40;;
15673;SDS011;7937;48.090;16.212;2023-04-25T05:06:14;2.87;;;2.23;;
15673;SDS011;7937;48.090;16.212;2023-04-25T05:09:26;2.60;;;2.37;;
15673;SDS011;7937;48.090;16.212;2023-04-25T05:12:43;4.30;;;2.87;;
15673;SDS011;7937;48.090;16.212;2023-04-25T05:15:55;2.93;;;2.63;;
15673;SDS011;7937;48.090;16.212;2023-04-25T05:19:22;5.27;;;2.90;;
15673;SDS011;7937;48.090;16.212;2023-04-25T05:22:43;2.57;;;2.37;;
15673;SDS011;7937;48.090;16.212;2023-04-25T05:26:18;2.33;;;2.13;;
15673;SDS011;7937;48.090;16.212;2023-04-25T05:29:41;3.07;;;2.77;;
15673;SDS011;7937;48.090;16.212;2023-04-25T05:33:08;3.17;;;2.57;;
15673;SDS011;7937;48.090;16.212;2023-04-25T05:36:11;2.77;;;2.57;;
15673;SDS011;7937;48.090;16.212;2023-04-25T05:39:13;2.73;;;2.37;;
15673;SDS011;7937;48.090;16.212;2023-04-25T05:42:44;3.00;;;2.03;;
15673;SDS011;7937;48.090;16.212;2023-04-25T05:46:07;4.33;;;2.27;;
15673;SDS011;7937;48.090;16.212;2023-04-25T05:49:25;2.33;;;2.07;;
15673;SDS011;7937;48.090;16.212;2023-04-25T05:52:54;2.50;;;2.30;;
15673;SDS011;7937;48.090;16.212;2023-04-25T05:56:04;3.43;;;1.97;;
15673;SDS011;7937;48.090;16.212;2023-04-25T05:59:06;2.97;;;2.53;;
15673;SDS011;7937;48.090;16.212;2023-04-25T06:02:08;2.80;;;2.43;;
15673;SDS011;7937;48.090;16.212;2023-04-25T06:05:12;2.53;;;2.20;;
15673;SDS011;7937;48.090;16.212;2023-04-25T06:08:15;2.10;;;1.90;;
15673;SDS011;7937;48.090;16.212;2023-04-25T06:11:17;4.00;;;2.40;;
15673;SDS011;7937;48.090;16.212;2023-04-25T06:14:20;2.27;;;2.03;;
15673;SDS011;7937;48.090;16.212;2023-04-25T06:17:24;1.93;;;1.50;;
15673;SDS011;7937;48.090;16.212;2023-04-25T06:20:27;2.50;;;2.10;;
15673;SDS011;7937;48.090;16.212;2023-04-25T06:23:32;2.80;;;2.23;;
15673;SDS011;7937;48.090;16.212;2023-04-25T06:26:41;2.07;;;1.87;;
15673;SDS011;7937;48.090;16.212;2023-04-25T06:29:44;2.43;;;2.23;;
15673;SDS011;7937;48.090;16.212;2023-04-25T06:32:48;2.30;;;1.93;;
15673;SDS011;7937;48.090;16.212;2023-04-25T06:35:50;2.23;;;1.80;;
15673;SDS011;7937;48.090;16.212;2023-04-25T06:38:58;2.53;;;2.00;;
15673;SDS011;7937;48.090;16.212;2023-04-25T06:42:00;4.93;;;2.90;;
15673;SDS011;7937;48.090;16.212;2023-04-25T06:45:33;3.07;;;2.47;;
15673;SDS011;7937;48.090;16.212;2023-04-25T06:48:36;2.53;;;2.03;;
15673;SDS011;7937;48.090;16.212;2023-04-25T06:51:40;3.23;;;2.10;;
15673;SDS011;7937;48.090;16.212;2023-04-25T06:54:43;3.77;;;2.37;;
15673;SDS011;7937;48.090;16.212;2023-04-25T06:57:57;4.73;;;2.20;;
15673;SDS011;7937;48.090;16.212;2023-04-25T07:01:26;2.03;;;1.83;;
15673;SDS011;7937;48.090;16.212;2023-04-25T07:04:29;1.83;;;1.73;;
15673;SDS011;7937;48.090;16.212;2023-04-25T07:07:33;3.03;;;1.70;;
15673;SDS011;7937;48.090;16.212;2023-04-25T07:10:36;2.30;;;1.80;;
15673;SDS011;7937;48.090;16.212;2023-04-25T07:13:38;3.47;;;1.77;;
15673;SDS011;7937;48.090;16.212;2023-04-25T07:16:41;2.60;;;2.10;;
15673;SDS011;7937;48.090;16.212;2023-04-25T07:19:44;1.53;;;1.33;;
15673;SDS011;7937;48.090;16.212;2023-04-25T07:22:46;2.53;;;1.57;;
15673;SDS011;7937;48.090;16.212;2023-04-25T07:25:49;1.93;;;1.77;;
15673;SDS011;7937;48.090;16.212;2023-04-25T07:28:55;2.27;;;2.07;;
15673;SDS011;7937;48.090;16.212;2023-04-25T07:31:58;3.23;;;1.73;;
15673;SDS011;7937;48.090;16.212;2023-04-25T07:35:01;1.87;;;1.77;;
15673;SDS011;7937;48.090;16.212;2023-04-25T07:38:05;4.00;;;1.50;;
15673;SDS011;7937;48.090;16.212;2023-04-25T07:41:08;3.13;;;2.20;;
15673;SDS011;7937;48.090;16.212;2023-04-25T07:44:11;3.60;;;2.37;;
15673;SDS011;7937;48.090;16.212;2023-04-25T07:47:14;2.23;;;2.03;;
15673;SDS011;7937;48.090;16.212;2023-04-25T07:50:17;3.73;;;2.20;;
15673;SDS011;7937;48.090;16.212;2023-04-25T07:53:21;1.87;;;1.77;;
15673;SDS011;7937;48.090;16.212;2023-04-25T07:56:28;2.37;;;1.90;;
15673;SDS011;7937;48.090;16.212;2023-04-25T07:59:46;2.23;;;2.03;;
15673;SDS011;7937;48.090;16.212;2023-04-25T08:02:49;3.13;;;2.00;;
15673;SDS011;7937;48.090;16.212;2023-04-25T08:05:54;3.57;;;2.20;;
15673;SDS011;7937;48.090;16.212;2023-04-25T08:08:59;2.53;;;2.17;;
15673;SDS011;7937;48.090;16.212;2023-04-25T08:12:08;2.57;;;2.10;;
15673;SDS011;7937;48.090;16.212;2023-04-25T08:15:11;1.73;;;1.63;;
15673;SDS011;7937;48.090;16.212;2023-04-25T08:18:17;5.13;;;1.97;;
15673;SDS011;7937;48.090;16.212;2023-04-25T08:21:21;2.47;;;2.10;;
15673;SDS011;7937;48.090;16.212;2023-04-25T08:24:26;3.13;;;1.80;;
15673;SDS011;7937;48.090;16.212;2023-04-25T08:27:29;1.57;;;1.47;;
15673;SDS011;7937;48.090;16.212;2023-04-25T08:30:32;2.30;;;1.93;;
15673;SDS011;7937;48.090;16.212;2023-04-25T08:33:36;4.27;;;1.90;;
15673;SDS011;7937;48.090;16.212;2023-04-25T08:36:55;2.57;;;1.77;;
15673;SDS011;7937;48.090;16.212;2023-04-25T08:40:18;1.90;;;1.70;;
15673;SDS011;7937;48.090;16.212;2023-04-25T08:43:34;2.23;;;2.00;;
15673;SDS011;7937;48.090;16.212;2023-04-25T08:46:40;2.17;;;1.97;;
15673;SDS011;7937;48.090;16.212;2023-04-25T08:49:51;4.33;;;2.17;;
15673;SDS011;7937;48.090;16.212;2023-04-25T08:52:56;2.00;;;1.67;;
15673;SDS011;7937;48.090;16.212;2023-04-25T08:56:04;3.60;;;1.63;;
15673;SDS011;7937;48.090;16.212;2023-04-25T08:59:11;1.93;;;1.80;;
15673;SDS011;7937;48.090;16.212;2023-04-25T09:02:15;4.17;;;1.70;;
15673;SDS011;7937;48.090;16.212;2023-04-25T09:05:23;3.13;;;1.97;;
15673;SDS011;7937;48.090;16.212;2023-04-25T09:08:27;2.37;;;1.63;;
15673;SDS011;7937;48.090;16.212;2023-04-25T09:11:30;2.50;;;1.30;;
15673;SDS011;7937;48.090;16.212;2023-04-25T09:14:35;3.13;;;1.30;;
15673;SDS011;7937;48.090;16.212;2023-04-25T09:17:43;1.97;;;1.20;;
15673;SDS011;7937;48.090;16.212;2023-04-25T09:20:47;2.10;;;0.93;;
15673;SDS011;7937;48.090;16.212;2023-04-25T09:24:01;2.30;;;1.07;;
15673;SDS011;7937;48.090;16.212;2023-04-25T09:27:05;2.50;;;0.97;;
15673;SDS011;7937;48.090;16.212;2023-04-25T09:30:09;1.70;;;1.10;;
15673;SDS011;7937;48.090;16.212;2023-04-25T09:33:44;3.17;;;1.30;;
15673;SDS011;7937;48.090;16.212;2023-04-25T09:36:48;1.40;;;1.30;;
15673;SDS011;7937;48.090;16.212;2023-04-25T09:40:06;1.87;;;1.70;;
15673;SDS011;7937;48.090;16.212;2023-04-25T09:43:24;1.40;;;1.30;;
15673;SDS011;7937;48.090;16.212;2023-04-25T09:46:33;3.53;;;1.50;;
15673;SDS011;7937;48.090;16.212;2023-04-25T09:49:43;2.13;;;1.87;;
15673;SDS011;7937;48.090;16.212;2023-04-25T09:52:48;2.03;;;1.63;;
15673;SDS011;7937;48.090;16.212;2023-04-25T09:56:12;3.33;;;1.30;;
15673;SDS011;7937;48.090;16.212;2023-04-25T09:59:15;2.40;;;1.47;;
15673;SDS011;7937;48.090;16.212;2023-04-25T10:02:20;2.43;;;1.43;;
15673;SDS011;7937;48.090;16.212;2023-04-25T10:05:27;3.63;;;2.03;;
15673;SDS011;7937;48.090;16.212;2023-04-25T10:08:35;3.40;;;2.00;;
15673;SDS011;7937;48.090;16.212;2023-04-25T10:11:39;2.03;;;1.83;;
15673;SDS011;7937;48.090;16.212;2023-04-25T10:14:42;4.00;;;1.83;;
15673;SDS011;7937;48.090;16.212;2023-04-25T10:17:45;3.60;;;1.80;;
15673;SDS011;7937;48.090;16.212;2023-04-25T10:20:47;2.60;;;1.80;;
15673;SDS011;7937;48.090;16.212;2023-04-25T10:23:53;1.77;;;1.60;;
15673;SDS011;7937;48.090;16.212;2023-04-25T10:26:58;2.63;;;1.60;;
15673;SDS011;7937;48.090;16.212;2023-04-25T10:30:14;2.10;;;1.40;;
15673;SDS011;7937;48.090;16.212;2023-04-25T10:33:18;1.70;;;1.23;;
15673;SDS011;7937;48.090;16.212;2023-04-25T10:36:31;3.30;;;1.60;;
15673;SDS011;7937;48.090;16.212;2023-04-25T10:39:34;1.50;;;1.30;;
15673;SDS011;7937;48.090;16.212;2023-04-25T10:42:37;1.70;;;1.53;;
15673;SDS011;7937;48.090;16.212;2023-04-25T10:45:51;1.87;;;1.27;;
15673;SDS011;7937;48.090;16.212;2023-04-25T10:48:55;2.23;;;1.30;;
15673;SDS011;7937;48.090;16.212;2023-04-25T10:52:15;1.80;;;1.20;;
15673;SDS011;7937;48.090;16.212;2023-04-25T10:55:49;1.50;;;1.30;;
15673;SDS011;7937;48.090;16.212;2023-04-25T10:59:26;2.07;;;1.70;;
15673;SDS011;7937;48.090;16.212;2023-04-25T11:02:23;1.67;;;1.43;;
15673;SDS011;7937;48.090;16.212;2023-04-25T11:05:33;3.17;;;1.80;;
15673;SDS011;7937;48.090;16.212;2023-04-25T11:08:59;2.50;;;1.43;;
15673;SDS011;7937;48.090;16.212;2023-04-25T11:12:04;2.90;;;1.50;;
15673;SDS011;7937;48.090;16.212;2023-04-25T11:15:07;2.07;;;1.30;;
15673;SDS011;7937;48.090;16.212;2023-04-25T11:18:09;1.40;;;1.30;;
15673;SDS011;7937;48.090;16.212;2023-04-25T11:21:13;2.03;;;1.40;;
15673;SDS011;7937;48.090;16.212;2023-04-25T11:24:16;1.73;;;1.50;;
15673;SDS011;7937;48.090;16.212;2023-04-25T11:27:19;2.40;;;1.20;;
15673;SDS011;7937;48.090;16.212;2023-04-25T11:30:24;1.80;;;1.17;;
15673;SDS011;7937;48.090;16.212;2023-04-25T11:33:28;2.73;;;1.83;;
15673;SDS011;7937;48.090;16.212;2023-04-25T11:36:30;2.53;;;1.80;;
15673;SDS011;7937;48.090;16.212;2023-04-25T11:39:33;3.43;;;1.93;;
15673;SDS011;7937;48.090;16.212;2023-04-25T11:42:37;1.70;;;1.60;;
15673;SDS011;7937;48.090;16.212;2023-04-25T11:45:41;2.10;;;1.30;;
15673;SDS011;7937;48.090;16.212;2023-04-25T11:48:44;1.47;;;1.10;;
15673;SDS011;7937;48.090;16.212;2023-04-25T11:51:47;2.23;;;1.03;;
15673;SDS011;7937;48.090;16.212;2023-04-25T11:54:50;2.20;;;0.80;;
15673;SDS011;7937;48.090;16.212;2023-04-25T11:57:53;0.60;;;0.60;;
15673;SDS011;7937;48.090;16.212;2023-04-25T12:00:55;0.50;;;0.50;;
15673;SDS011;7937;48.090;16.212;2023-04-25T12:04:10;0.60;;;0.60;;
15673;SDS011;7937;48.090;16.212;2023-04-25T12:07:16;2.13;;;0.70;;
15673;SDS011;7937;48.090;16.212;2023-04-25T12:10:20;0.60;;;0.60;;
15673;SDS011;7937;48.090;16.212;2023-04-25T12:13:24;2.43;;;1.10;;
15673;SDS011;7937;48.090;16.212;2023-04-25T12:16:28;2.27;;;0.73;;
15673;SDS011;7937;48.090;16.212;2023-04-25T12:19:35;1.07;;;0.70;;
15673;SDS011;7937;48.090;16.212;2023-04-25T12:22:44;0.80;;;0.80;;
15673;SDS011;7937;48.090;16.212;2023-04-25T12:25:48;1.60;;;0.90;;
15673;SDS011;7937;48.090;16.212;2023-04-25T12:28:51;2.83;;;0.70;;
15673;SDS011;7937;48.090;16.212;2023-04-25T12:31:54;2.37;;;0.90;;
15673;SDS011;7937;48.090;16.212;2023-04-25T12:34:57;0.93;;;0.80;;
15673;SDS011;7937;48.090;16.212;2023-04-25T12:38:00;1.17;;;0.90;;
15673;SDS011;7937;48.090;16.212;2023-04-25T12:41:03;1.03;;;0.70;;
15673;SDS011;7937;48.090;16.212;2023-04-25T12:44:05;1.63;;;1.00;;
15673;SDS011;7937;48.090;16.212;2023-04-25T12:47:08;1.27;;;0.80;;
15673;SDS011;7937;48.090;16.212;2023-04-25T12:50:10;0.77;;;0.77;;
15673;SDS011;7937;48.090;16.212;2023-04-25T12:53:13;0.63;;;0.60;;
15673;SDS011;7937;48.090;16.212;2023-04-25T12:56:15;0.80;;;0.70;;
15673;SDS011;7937;48.090;16.212;2023-04-25T12:59:17;0.77;;;0.60;;
15673;SDS011;7937;48.090;16.212;2023-04-25T13:02:22;2.67;;;0.80;;
15673;SDS011;7937;48.090;16.212;2023-04-25T13:05:24;1.37;;;0.77;;
15673;SDS011;7937;48.090;16.212;2023-04-25T13:08:28;2.53;;;0.67;;
15673;SDS011;7937;48.090;16.212;2023-04-25T13:11:30;1.37;;;0.63;;
15673;SDS011;7937;48.090;16.212;2023-04-25T13:14:33;1.13;;;0.70;;
15673;SDS011;7937;48.090;16.212;2023-04-25T13:17:35;0.70;;;0.70;;
15673;SDS011;7937;48.090;16.212;2023-04-25T13:20:38;1.57;;;0.70;;
15673;SDS011;7937;48.090;16.212;2023-04-25T13:23:40;2.70;;;0.80;;
15673;SDS011;7937;48.090;16.212;2023-04-25T13:26:48;0.63;;;0.63;;
15673;SDS011;7937;48.090;16.212;2023-04-25T13:29:51;2.87;;;1.10;;
15673;SDS011;7937;48.090;16.212;2023-04-25T13:32:54;0.90;;;0.73;;
15673;SDS011;7937;48.090;16.212;2023-04-25T13:36:00;1.73;;;1.00;;
15673;SDS011;7937;48.090;16.212;2023-04-25T13:39:04;1.37;;;0.70;;
15673;SDS011;7937;48.090;16.212;2023-04-25T13:42:07;1.03;;;0.83;;
15673;SDS011;7937;48.090;16.212;2023-04-25T13:45:10;0.73;;;0.70;;
15673;SDS011;7937;48.090;16.212;2023-04-25T13:48:12;0.90;;;0.70;;
15673;SDS011;7937;48.090;16.212;2023-04-25T13:51:15;2.23;;;0.90;;
15673;SDS011;7937;48.090;16.212;2023-04-25T13:54:19;2.17;;;0.57;;
15673;SDS011;7937;48.090;16.212;2023-04-25T13:57:22;0.73;;;0.50;;
15673;SDS011;7937;48.090;16.212;2023-04-25T14:00:25;1.13;;;0.50;;
15673;SDS011;7937;48.090;16.212;2023-04-25T14:03:28;1.10;;;0.70;;
15673;SDS011;7937;48.090;16.212;2023-04-25T14:06:31;2.10;;;0.50;;
15673;SDS011;7937;48.090;16.212;2023-04-25T14:09:34;0.70;;;0.70;;
15673;SDS011;7937;48.090;16.212;2023-04-25T14:12:37;1.10;;;0.70;;
15673;SDS011;7937;48.090;16.212;2023-04-25T14:15:39;1.37;;;0.60;;
15673;SDS011;7937;48.090;16.212;2023-04-25T14:18:41;0.80;;;0.40;;
15673;SDS011;7937;48.090;16.212;2023-04-25T14:21:43;0.77;;;0.53;;
15673;SDS011;7937;48.090;16.212;2023-04-25T14:24:46;0.80;;;0.70;;
15673;SDS011;7937;48.090;16.212;2023-04-25T14:27:49;1.57;;;0.40;;
15673;SDS011;7937;48.090;16.212;2023-04-25T14:30:52;0.80;;;0.50;;
15673;SDS011;7937;48.090;16.212;2023-04-25T14:33:54;0.50;;;0.50;;
15673;SDS011;7937;48.090;16.212;2023-04-25T14:37:00;0.47;;;0.47;;
15673;SDS011;7937;48.090;16.212;2023-04-25T14:40:02;0.53;;;0.53;;
15673;SDS011;7937;48.090;16.212;2023-04-25T14:43:07;1.30;;;0.60;;
15673;SDS011;7937;48.090;16.212;2023-04-25T14:46:09;1.43;;;0.60;;
15673;SDS011;7937;48.090;16.212;2023-04-25T14:49:13;1.73;;;0.70;;
15673;SDS011;7937;48.090;16.212;2023-04-25T14:52:15;0.83;;;0.67;;
15673;SDS011;7937;48.090;16.212;2023-04-25T14:55:18;1.37;;;0.80;;
15673;SDS011;7937;48.090;16.212;2023-04-25T14:58:21;1.27;;;0.60;;
15673;SDS011;7937;48.090;16.212;2023-04-25T15:01:24;1.10;;;1.00;;
15673;SDS011;7937;48.090;16.212;2023-04-25T15:04:28;3.53;;;0.73;;
15673;SDS011;7937;48.090;16.212;2023-04-25T15:07:31;0.50;;;0.50;;
15673;SDS011;7937;48.090;16.212;2023-04-25T15:10:34;0.63;;;0.63;;
15673;SDS011;7937;48.090;16.212;2023-04-25T15:13:36;1.50;;;0.90;;
15673;SDS011;7937;48.090;16.212;2023-04-25T15:16:39;2.47;;;1.00;;
15673;SDS011;7937;48.090;16.212;2023-04-25T15:19:41;1.20;;;1.00;;
15673;SDS011;7937;48.090;16.212;2023-04-25T15:22:44;1.77;;;1.00;;
15673;SDS011;7937;48.090;16.212;2023-04-25T15:25:47;2.50;;;1.30;;
15673;SDS011;7937;48.090;16.212;2023-04-25T15:28:49;0.97;;;0.87;;
15673;SDS011;7937;48.090;16.212;2023-04-25T15:31:52;1.80;;;0.93;;
15673;SDS011;7937;48.090;16.212;2023-04-25T15:34:55;1.10;;;0.90;;
15673;SDS011;7937;48.090;16.212;2023-04-25T15:37:57;2.03;;;0.70;;
15673;SDS011;7937;48.090;16.212;2023-04-25T15:41:01;0.53;;;0.50;;
15673;SDS011;7937;48.090;16.212;2023-04-25T15:44:05;1.30;;;0.70;;
15673;SDS011;7937;48.090;16.212;2023-04-25T15:47:09;1.50;;;0.70;;
15673;SDS011;7937;48.090;16.212;2023-04-25T15:50:12;1.00;;;0.60;;
15673;SDS011;7937;48.090;16.212;2023-04-25T15:53:18;0.60;;;0.60;;
15673;SDS011;7937;48.090;16.212;2023-04-25T15:56:21;0.50;;;0.43;;
15673;SDS011;7937;48.090;16.212;2023-04-25T15:59:25;0.40;;;0.40;;
15673;SDS011;7937;48.090;16.212;2023-04-25T16:02:28;0.70;;;0.60;;
15673;SDS011;7937;48.090;16.212;2023-04-25T16:05:31;0.40;;;0.40;;
15673;SDS011;7937;48.090;16.212;2023-04-25T16:08:35;0.50;;;0.50;;
15673;SDS011;7937;48.090;16.212;2023-04-25T16:11:38;0.60;;;0.53;;
15673;SDS011;7937;48.090;16.212;2023-04-25T16:14:40;0.43;;;0.43;;
15673;SDS011;7937;48.090;16.212;2023-04-25T16:17:43;0.50;;;0.50;;
15673;SDS011;7937;48.090;16.212;2023-04-25T16:20:46;0.40;;;0.40;;
15673;SDS011;7937;48.090;16.212;2023-04-25T16:23:48;0.50;;;0.50;;
15673;SDS011;7937;48.090;16.212;2023-04-25T16:26:51;0.67;;;0.40;;
15673;SDS011;7937;48.090;16.212;2023-04-25T16:29:54;0.77;;;0.53;;
15673;SDS011;7937;48.090;16.212;2023-04-25T16:32:57;0.40;;;0.40;;
15673;SDS011;7937;48.090;16.212;2023-04-25T16:35:59;0.40;;;0.40;;
15673;SDS011;7937;48.090;16.212;2023-04-25T16:39:02;0.70;;;0.70;;
15673;SDS011;7937;48.090;16.212;2023-04-25T16:42:05;0.73;;;0.67;;
15673;SDS011;7937;48.090;16.212;2023-04-25T16:45:08;0.43;;;0.43;;
15673;SDS011;7937;48.090;16.212;2023-04-25T16:48:10;0.73;;;0.47;;
15673;SDS011;7937;48.090;16.212;2023-04-25T16:51:14;1.07;;;0.50;;
15673;SDS011;7937;48.090;16.212;2023-04-25T16:54:17;1.40;;;0.47;;
15673;SDS011;7937;48.090;16.212;2023-04-25T16:57:20;0.50;;;0.43;;
15673;SDS011;7937;48.090;16.212;2023-04-25T17:00:22;0.50;;;0.50;;
15673;SDS011;7937;48.090;16.212;2023-04-25T17:03:25;0.70;;;0.40;;
15673;SDS011;7937;48.090;16.212;2023-04-25T17:06:28;0.57;;;0.40;;
15673;SDS011;7937;48.090;16.212;2023-04-25T17:09:31;1.57;;;0.60;;
15673;SDS011;7937;48.090;16.212;2023-04-25T17:12:33;0.83;;;0.50;;
15673;SDS011;7937;48.090;16.212;2023-04-25T17:15:36;0.53;;;0.50;;
15673;SDS011;7937;48.090;16.212;2023-04-25T17:18:38;1.37;;;0.60;;
15673;SDS011;7937;48.090;16.212;2023-04-25T17:21:41;0.60;;;0.60;;
15673;SDS011;7937;48.090;16.212;2023-04-25T17:24:46;0.57;;;0.43;;
15673;SDS011;7937;48.090;16.212;2023-04-25T17:27:50;0.53;;;0.50;;
15673;SDS011;7937;48.090;16.212;2023-04-25T17:30:55;0.60;;;0.60;;
15673;SDS011;7937;48.090;16.212;2023-04-25T17:33:58;0.60;;;0.40;;
15673;SDS011;7937;48.090;16.212;2023-04-25T17:37:01;0.67;;;0.60;;
15673;SDS011;7937;48.090;16.212;2023-04-25T17:40:04;0.43;;;0.30;;
15673;SDS011;7937;48.090;16.212;2023-04-25T17:43:13;1.07;;;0.50;;
15673;SDS011;7937;48.090;16.212;2023-04-25T17:46:15;1.20;;;0.60;;
15673;SDS011;7937;48.090;16.212;2023-04-25T17:49:18;0.93;;;0.57;;
15673;SDS011;7937;48.090;16.212;2023-04-25T17:52:22;0.40;;;0.40;;
15673;SDS011;7937;48.090;16.212;2023-04-25T17:55:26;0.73;;;0.40;;
15673;SDS011;7937;48.090;16.212;2023-04-25T17:58:29;0.60;;;0.60;;
15673;SDS011;7937;48.090;16.212;2023-04-25T18:01:32;0.70;;;0.50;;
15673;SDS011;7937;48.090;16.212;2023-04-25T18:04:34;0.60;;;0.60;;
15673;SDS011;7937;48.090;16.212;2023-04-25T18:07:37;0.60;;;0.60;;
15673;SDS011;7937;48.090;16.212;2023-04-25T18:10:39;0.50;;;0.50;;
15673;SDS011;7937;48.090;16.212;2023-04-25T18:13:42;0.50;;;0.50;;
15673;SDS011;7937;48.090;16.212;2023-04-25T18:16:47;0.60;;;0.60;;
15673;SDS011;7937;48.090;16.212;2023-04-25T18:19:51;0.60;;;0.60;;
15673;SDS011;7937;48.090;16.212;2023-04-25T18:22:54;1.37;;;0.50;;
15673;SDS011;7937;48.090;16.212;2023-04-25T18:25:57;0.97;;;0.97;;
15673;SDS011;7937;48.090;16.212;2023-04-25T18:29:00;0.87;;;0.50;;
15673;SDS011;7937;48.090;16.212;2023-04-25T18:32:03;0.53;;;0.40;;
15673;SDS011;7937;48.090;16.212;2023-04-25T18:35:09;0.80;;;0.60;;
15673;SDS011;7937;48.090;16.212;2023-04-25T18:38:13;0.70;;;0.50;;